Time;durP1;ratioP1;P1;durP2;ratioP2;P2;SDS_P1;SDS_P2;PMS_P1;PMS_P2;Temp;Humidity;BMP_temperature;BMP_pressure;BME280_temperature;BME280_humidity;BME280_pressure;Samples;Min_cycle;Max_cycle;Signal;HPM_P1;HPM_P2
2021/12/14 00:01:08;;;;;;;17.70;12.03;;;;;;;0.86;100.00;100171.69;1776628;80;20979;-66
2021/12/14 00:03:35;;;;;;;16.60;11.83;;;;;;;0.86;100.00;100180.56;1763041;80;21030;-67
2021/12/14 00:06:02;;;;;;;18.98;12.03;;;;;;;0.81;100.00;100177.67;1773343;80;21005;-66
2021/12/14 00:08:35;;;;;;;;;;;;;;;0.81;100.00;100179.52;1764165;80;21537;-67
2021/12/14 00:13:58;;;;;;;17.27;11.70;;;;;;;0.76;100.00;100186.80;1761060;80;20987;-67
2021/12/14 00:15:58;;;;;;;18.30;11.95;;;;;;;0.78;100.00;100192.78;1755507;80;20974;-67
2021/12/14 00:18:25;;;;;;;17.52;11.55;;;;;;;0.80;100.00;100187.23;1741340;80;21042;-67
2021/12/14 00:21:01;;;;;;;17.00;11.55;;;;;;;0.81;100.00;100188.90;1777586;80;21038;-67
2021/12/14 00:26:16;;;;;;;19.95;12.03;;;;;;;0.79;100.00;100182.38;1768257;80;21456;-68
2021/12/14 00:28:43;;;;;;;16.50;11.28;;;;;;;0.84;100.00;100183.14;1758837;80;21562;-67
2021/12/14 00:31:14;;;;;;;14.28;10.53;;;;;;;0.88;100.00;100179.87;1761570;80;21024;-67
2021/12/14 00:33:42;;;;;;;14.13;10.60;;;;;;;0.93;100.00;100179.25;1739164;80;21015;-67
2021/12/14 00:36:10;;;;;;;15.83;11.55;;;;;;;0.94;100.00;100179.58;1749603;80;21062;-66
2021/12/14 00:38:37;;;;;;;15.72;10.48;;;;;;;0.92;100.00;100177.08;1761544;80;21022;-66
2021/12/14 00:41:18;;;;;;;17.40;12.07;;;;;;;0.93;100.00;100168.53;1772365;80;21533;-67
2021/12/14 00:43:45;;;;;;;15.23;10.40;;;;;;;0.96;100.00;100174.33;1770928;80;21086;-66
2021/12/14 00:46:13;;;;;;;16.37;10.78;;;;;;;0.96;100.00;100173.49;1750390;80;21041;-66
2021/12/14 00:48:41;;;;;;;15.50;10.28;;;;;;;0.95;100.00;100170.01;1755242;81;21027;-66
2021/12/14 00:51:09;;;;;;;16.62;10.45;;;;;;;0.93;100.00;100176.58;1753699;81;21146;-67
2021/12/14 00:53:35;;;;;;;13.38;9.55;;;;;;;0.92;100.00;100173.06;1757740;81;20998;-66
2021/12/14 00:56:05;;;;;;;15.83;10.55;;;;;;;0.90;100.00;100174.30;1766982;81;21003;-66
2021/12/14 00:58:32;;;;;;;15.25;10.53;;;;;;;0.88;100.00;100177.70;1753272;81;20953;-66
2021/12/14 01:01:08;;;;;;;;;;;;;;;0.84;100.00;100179.95;1756945;81;20963;-66
2021/12/14 01:03:37;;;;;;;12.28;8.53;;;;;;;0.87;100.00;100178.72;1752426;81;20428;-66
2021/12/14 01:06:06;;;;;;;15.08;9.83;;;;;;;0.90;100.00;100181.00;1765817;81;21019;-66
2021/12/14 01:08:37;;;;;;;12.45;8.88;;;;;;;0.92;100.00;100178.97;1767755;80;21894;-66
2021/12/14 01:11:17;;;;;;;15.65;10.05;;;;;;;0.91;100.00;100191.53;1756090;81;21435;-67
2021/12/14 01:13:54;;;;;;;13.60;9.90;;;;;;;0.88;100.00;100188.42;1738571;80;21023;-66
2021/12/14 01:16:48;;;;;;;13.38;9.55;;;;;;;0.84;100.00;100189.84;1763958;81;21054;-66
2021/12/14 01:19:18;;;;;;;10.65;8.18;;;;;;;0.85;100.00;100192.84;1750599;81;21027;-65
2021/12/14 01:22:11;;;;;;;12.80;9.18;;;;;;;0.88;100.00;100193.78;1717740;83;21052;-66
2021/12/14 01:24:35;;;;;;;12.55;9.28;;;;;;;0.90;100.00;100187.19;1767618;81;21058;-66
2021/12/14 01:26:50;;;;;;;14.93;9.53;;;;;;;0.92;100.00;100196.39;1764562;81;21099;-66
2021/12/14 01:29:18;;;;;;;;;;;;;;;0.87;100.00;100189.44;1768028;81;21031;-67
2021/12/14 01:31:47;;;;;;;14.10;9.43;;;;;;;0.81;100.00;100191.58;1754310;81;20109;-67
2021/12/14 01:34:18;;;;;;;13.05;8.35;;;;;;;0.74;100.00;100192.05;1768091;81;21023;-66
2021/12/14 01:36:49;;;;;;;13.10;8.60;;;;;;;0.72;100.00;100192.23;1746318;81;21098;-66
2021/12/14 01:39:47;;;;;;;12.35;8.73;;;;;;;0.76;100.00;100204.22;1721162;82;21545;-66
2021/12/14 01:41:57;;;;;;;13.40;9.25;;;;;;;0.78;100.00;100198.14;1720728;82;21446;-67
2021/12/14 01:44:26;;;;;;;13.50;9.48;;;;;;;0.78;100.00;100200.82;1752230;81;21067;-67
2021/12/14 01:47:01;;;;;;;11.65;8.68;;;;;;;0.77;100.00;100197.84;1747990;81;21102;-67
2021/12/14 01:49:36;;;;;;;13.55;8.55;;;;;;;0.73;100.00;100202.45;1742556;81;21047;-67
2021/12/14 01:52:09;;;;;;;12.25;8.80;;;;;;;0.73;100.00;100201.11;1748061;81;21045;-67
2021/12/14 01:54:40;;;;;;;11.70;8.63;;;;;;;0.77;100.00;100199.19;1763887;81;21070;-66
2021/12/14 01:57:08;;;;;;;11.48;8.40;;;;;;;0.80;100.00;100197.45;1768624;81;21044;-67
2021/12/14 01:59:38;;;;;;;11.03;8.25;;;;;;;0.83;100.00;100194.88;1761435;81;21015;-66
2021/12/14 02:02:23;;;;;;;10.45;8.08;;;;;;;0.85;100.00;100195.52;1754575;81;21058;-66
2021/12/14 02:04:41;;;;;;;13.15;8.35;;;;;;;0.76;100.00;100192.16;1750978;81;21033;-67
2021/12/14 02:07:09;;;;;;;11.53;8.13;;;;;;;0.77;100.00;100191.66;1751043;81;21546;-66
2021/12/14 02:09:36;;;;;;;12.15;8.45;;;;;;;0.80;100.00;100198.78;1769976;80;21016;-67
2021/12/14 02:12:16;;;;;;;10.65;7.70;;;;;;;0.78;100.00;100202.16;1766475;81;21043;-66
2021/12/14 02:14:45;;;;;;;10.00;7.08;;;;;;;0.78;100.00;100194.12;1760996;81;21050;-66
2021/12/14 02:17:14;;;;;;;10.25;6.85;;;;;;;0.80;100.00;100201.47;1711015;82;21003;-67
2021/12/14 02:19:41;;;;;;;10.05;7.15;;;;;;;0.78;100.00;100194.66;1713979;82;21031;-67
2021/12/14 02:22:07;;;;;;;10.48;7.90;;;;;;;0.76;100.00;100200.71;1773749;80;21688;-67
2021/12/14 02:24:35;;;;;;;10.72;7.45;;;;;;;0.71;100.00;100193.25;1750422;81;20998;-67
2021/12/14 02:27:02;;;;;;;10.10;7.20;;;;;;;0.73;100.00;100191.73;1751106;81;21070;-66
2021/12/14 02:29:34;;;;;;;10.98;6.83;;;;;;;0.73;100.00;100191.73;1747900;81;20987;-67
2021/12/14 02:32:08;;;;;;;10.10;7.60;;;;;;;0.75;100.00;100198.53;1765421;81;21039;-67
2021/12/14 02:34:47;;;;;;;10.90;7.33;;;;;;;0.77;100.00;100192.99;1766783;81;21004;-66
2021/12/14 02:37:16;;;;;;;11.43;7.90;;;;;;;0.80;100.00;100192.59;1751842;81;21028;-67
2021/12/14 02:42:21;;;;;;;10.05;7.35;;;;;;;0.87;100.00;100197.48;1729424;81;21054;-67
2021/12/14 02:44:50;;;;;;;9.90;7.22;;;;;;;0.82;100.00;100199.41;1751301;81;21031;-68
2021/12/14 02:47:17;;;;;;;9.10;6.90;;;;;;;0.76;100.00;100195.34;1747720;82;21035;-67
2021/12/14 02:49:43;;;;;;;9.55;6.78;;;;;;;0.76;100.00;100200.20;1747570;81;21038;-68
2021/12/14 02:52:13;;;;;;;10.45;7.37;;;;;;;0.76;100.00;100200.71;1747673;81;21098;-67
2021/12/14 02:54:46;;;;;;;10.28;6.78;;;;;;;0.70;100.00;100198.83;1748482;81;21083;-67
2021/12/14 02:57:16;;;;;;;9.73;7.37;;;;;;;0.70;100.00;100201.50;1701529;82;21078;-68
2021/12/14 03:02:28;;;;;;;9.35;7.47;;;;;;;0.84;100.00;100201.90;1794703;78;23473;-67
2021/12/14 03:05:02;;;;;;;11.08;8.10;;;;;;;0.77;100.00;100202.38;1729223;82;20971;-68
2021/12/14 03:07:40;;;;;;;10.28;7.33;;;;;;;0.68;100.00;100200.34;1723989;82;21047;-67
2021/12/14 03:10:20;;;;;;;10.35;7.75;;;;;;;0.65;100.00;100198.06;1751879;82;21030;-67
2021/12/14 03:12:39;;;;;;;11.35;8.68;;;;;;;0.70;100.00;100203.67;1707693;82;21643;-67
2021/12/14 03:15:14;;;;;;;11.33;8.23;;;;;;;0.73;100.00;100202.45;1734212;81;21031;-67
2021/12/14 03:17:43;;;;;;;12.45;8.93;;;;;;;0.72;100.00;100202.95;1744273;82;21078;-68
2021/12/14 03:20:19;;;;;;;11.73;8.78;;;;;;;0.67;100.00;100199.22;1751450;82;21031;-67
2021/12/14 03:22:57;;;;;;;12.03;8.95;;;;;;;0.65;100.00;100202.59;1727491;82;21102;-66
2021/12/14 03:25:23;;;;;;;12.55;9.05;;;;;;;0.64;100.00;100199.63;1728270;82;21078;-67
2021/12/14 03:27:52;;;;;;;12.28;8.55;;;;;;;0.63;100.00;100201.98;1732637;82;21110;-67
2021/12/14 03:30:25;;;;;;;;;;;;;;;0.64;100.00;100197.74;1734154;82;21003;-67
2021/12/14 03:33:01;;;;;;;13.10;8.20;;;;;;;0.65;100.00;100200.75;1718980;81;20544;-67
2021/12/14 03:35:42;;;;;;;14.20;9.23;;;;;;;0.59;100.00;100200.20;1744875;82;21105;-67
2021/12/14 03:38:18;;;;;;;13.18;8.80;;;;;;;0.54;100.00;100195.09;1750284;80;21058;-70
2021/12/14 03:41:01;;;;;;;11.45;8.03;;;;;;;0.56;100.00;100206.46;1734097;82;21735;-68
2021/12/14 03:43:28;;;;;;;11.50;7.45;;;;;;;0.61;100.00;100200.82;1717616;82;21046;-68
2021/12/14 03:45:55;;;;;;;10.75;7.30;;;;;;;0.65;100.00;100200.75;1726440;82;21584;-66
2021/12/14 03:48:24;;;;;;;10.23;7.40;;;;;;;0.64;100.00;100196.41;1723305;82;21053;-66
2021/12/14 03:50:51;;;;;;;10.50;7.33;;;;;;;0.61;100.00;100204.84;1723749;82;21022;-67
2021/12/14 03:53:19;;;;;;;10.48;6.50;;;;;;;0.60;100.00;100205.88;1727644;83;20955;-66
2021/12/14 03:56:55;;;;;;;10.28;7.22;;;;;;;0.73;100.00;100207.30;1800257;79;22802;-68
2021/12/14 03:59:27;;;;;;;9.53;7.40;;;;;;;0.66;100.00;100211.79;1753071;82;21539;-67
2021/12/14 04:01:54;;;;;;;9.50;6.75;;;;;;;0.63;100.00;100206.00;1750503;81;21043;-67
2021/12/14 04:04:37;;;;;;;8.68;6.33;;;;;;;0.67;100.00;100211.28;1754525;80;21495;-68
2021/12/14 04:07:07;;;;;;;9.78;6.75;;;;;;;0.73;100.00;100212.66;1745093;82;21624;-67
2021/12/14 04:09:36;;;;;;;10.32;7.50;;;;;;;0.77;100.00;100216.61;1716842;82;21437;-68
2021/12/14 04:12:06;;;;;;;13.20;9.25;;;;;;;0.74;100.00;100222.88;1662285;85;21054;-68
2021/12/14 04:14:41;;;;;;;12.23;8.15;;;;;;;0.66;100.00;100219.00;1685209;84;21008;-67
2021/12/14 04:17:08;;;;;;;13.80;8.98;;;;;;;0.66;100.00;100214.47;1686705;84;21652;-68
2021/12/14 04:19:36;;;;;;;12.55;7.87;;;;;;;0.72;100.00;100212.33;1698816;84;21639;-67
2021/12/14 04:22:11;;;;;;;13.78;8.50;;;;;;;0.78;100.00;100214.76;1682917;84;21038;-68
2021/12/14 04:24:40;;;;;;;11.75;7.95;;;;;;;0.77;100.00;100219.80;1689797;84;21047;-68
2021/12/14 04:27:11;;;;;;;10.93;7.60;;;;;;;0.71;100.00;100221.93;1694915;84;21090;-67
2021/12/14 04:29:37;;;;;;;11.18;7.45;;;;;;;0.68;100.00;100226.31;1684241;84;21031;-67
2021/12/14 04:32:07;;;;;;;10.20;7.03;;;;;;;0.67;100.00;100224.68;1681120;84;21134;-67
2021/12/14 04:34:34;;;;;;;8.73;6.80;;;;;;;0.66;100.00;100221.67;1678981;84;21003;-67
2021/12/14 04:37:01;;;;;;;12.75;8.18;;;;;;;0.65;100.00;100222.69;1697088;84;21648;-68
2021/12/14 04:39:43;;;;;;;10.58;7.42;;;;;;;0.63;100.00;100223.41;1681628;84;21459;-67
2021/12/14 04:53:35;;;;;;;12.00;8.60;;;;;;;0.65;100.00;100228.05;1690384;84;21083;-68
2021/12/14 04:56:03;;;;;;;11.65;7.42;;;;;;;0.66;100.00;100237.24;1698718;83;21590;-68
2021/12/14 04:58:37;;;;;;;11.15;7.55;;;;;;;0.72;100.00;100238.30;1693476;83;21544;-67
2021/12/14 05:01:07;;;;;;;13.60;8.80;;;;;;;0.75;100.00;100244.09;1701186;83;21618;-68
2021/12/14 05:03:43;;;;;;;12.55;8.85;;;;;;;0.75;100.00;100243.27;1703370;83;21025;-68
2021/12/14 05:06:18;;;;;;;14.45;9.05;;;;;;;0.74;100.00;100245.65;1703783;83;21077;-68
2021/12/14 05:11:21;;;;;;;14.55;9.50;;;;;;;0.77;100.00;100251.95;1717370;82;21141;-68
2021/12/14 05:14:03;;;;;;;15.38;10.60;;;;;;;0.73;100.00;100250.17;1661763;84;21068;-67
2021/12/14 05:16:32;;;;;;;17.32;11.40;;;;;;;0.73;100.00;100256.05;1675763;84;21637;-68
2021/12/14 05:19:04;;;;;;;16.80;10.15;;;;;;;0.72;100.00;100255.21;1676085;84;21601;-68
2021/12/14 05:21:38;;;;;;;16.52;10.95;;;;;;;0.72;100.00;100256.55;1674752;84;21078;-69
2021/12/14 05:24:09;;;;;;;16.12;10.72;;;;;;;0.72;100.00;100269.12;1690093;84;20987;-68
2021/12/14 05:26:37;;;;;;;17.40;10.93;;;;;;;0.67;100.00;100267.55;1667404;85;21138;-68
2021/12/14 05:29:07;;;;;;;16.65;10.95;;;;;;;0.67;100.00;100264.36;1685928;84;21554;-68
2021/12/14 05:31:44;;;;;;;14.98;9.85;;;;;;;0.74;100.00;100265.75;1677370;84;21100;-67
2021/12/14 05:34:11;;;;;;;12.63;8.80;;;;;;;0.78;100.00;100267.02;1672816;84;20967;-68
2021/12/14 05:36:39;;;;;;;13.20;9.23;;;;;;;0.82;100.00;100268.25;1688486;84;21090;-68
2021/12/14 05:39:22;;;;;;;12.78;8.95;;;;;;;0.74;100.00;100265.75;1656840;84;21478;-67
2021/12/14 05:44:18;;;;;;;12.58;8.88;;;;;;;0.73;100.00;100262.74;1666019;84;21502;-67
2021/12/14 05:46:51;;;;;;;13.38;9.30;;;;;;;0.76;100.00;100268.54;1696578;84;21075;-67
2021/12/14 05:49:23;;;;;;;12.58;9.23;;;;;;;0.82;100.00;100265.58;1683747;84;20992;-67
2021/12/14 05:51:51;;;;;;;14.18;9.55;;;;;;;0.80;100.00;100275.17;1701516;84;21078;-67
2021/12/14 05:54:22;;;;;;;11.55;8.05;;;;;;;0.71;100.00;100275.52;1688196;84;21454;-67
2021/12/14 05:56:50;;;;;;;13.65;9.38;;;;;;;0.69;100.00;100276.20;1693690;84;21080;-67
2021/12/14 05:59:19;;;;;;;13.75;9.28;;;;;;;0.69;100.00;100272.19;1672735;85;21043;-66
2021/12/14 06:01:46;;;;;;;14.13;10.10;;;;;;;0.70;100.00;100276.53;1679370;85;21707;-69
2021/12/14 06:04:12;;;;;;;14.07;10.13;;;;;;;0.69;100.00;100274.87;1711099;82;20963;-67
2021/12/14 16:16:24;;;;;;;34.23;18.42;;;;;;;0.91;100.00;100314.84;1759270;81;21557;-64
2021/12/14 16:18:52;;;;;;;31.10;18.05;;;;;;;0.88;100.00;100315.23;1699881;82;21090;-65
2021/12/14 16:21:18;;;;;;;32.65;17.23;;;;;;;0.89;100.00;100315.53;1753100;82;21632;-64
2021/12/14 16:23:45;;;;;;;33.50;17.65;;;;;;;0.92;100.00;100314.34;1752883;81;21054;-65
2021/12/14 16:26:15;;;;;;;;;;;;;;;0.94;100.00;100310.42;1755737;82;21585;-66
2021/12/14 16:28:49;;;;;;;31.70;15.78;;;;;;;0.94;100.00;100308.25;1752882;81;20135;-64
2021/12/14 16:31:21;;;;;;;31.93;17.12;;;;;;;0.82;100.00;100306.61;1753106;82;21625;-64
2021/12/14 16:33:57;;;;;;;26.27;14.35;;;;;;;0.80;100.00;100314.54;1753149;81;20976;-65
2021/12/14 16:36:30;;;;;;;26.48;14.47;;;;;;;0.84;100.00;100311.79;1753272;82;21050;-63
2021/12/14 16:39:03;;;;;;;26.35;14.25;;;;;;;0.83;100.00;100310.12;1753076;82;21011;-65
2021/12/14 16:41:33;;;;;;;28.70;14.68;;;;;;;0.77;100.00;100307.72;1753038;82;21609;-64
2021/12/14 16:44:07;;;;;;;23.47;13.05;;;;;;;0.77;100.00;100309.58;1724213;82;21510;-64
2021/12/14 16:46:41;;;;;;;25.82;14.43;;;;;;;0.82;100.00;100308.45;1753115;82;21090;-65
2021/12/14 16:49:12;;;;;;;25.37;14.00;;;;;;;0.81;100.00;100307.66;1753165;82;21014;-65
2021/12/14 16:51:38;;;;;;;26.80;14.18;;;;;;;0.80;100.00;100311.86;1753261;82;21061;-64
2021/12/14 16:54:09;;;;;;;26.62;14.13;;;;;;;0.79;100.00;100312.36;1753451;81;20988;-64
2021/12/14 16:56:42;;;;;;;26.60;14.07;;;;;;;0.82;100.00;100311.97;1753240;82;21034;-65
2021/12/14 16:59:22;;;;;;;27.93;14.75;;;;;;;0.84;100.00;100309.11;1753311;82;21007;-65
2021/12/14 17:01:57;;;;;;;27.75;15.60;;;;;;;0.87;100.00;100310.06;1752983;82;21070;-65
2021/12/14 17:04:26;;;;;;;26.27;14.25;;;;;;;0.83;100.00;100315.48;1753160;82;21047;-64
2021/12/14 17:06:54;;;;;;;27.77;14.63;;;;;;;0.79;100.00;100310.19;1753012;82;21117;-65
2021/12/14 17:09:24;;;;;;;25.37;13.95;;;;;;;0.81;100.00;100314.86;1753165;82;21023;-65
2021/12/14 17:11:50;;;;;;;27.17;14.45;;;;;;;0.85;100.00;100314.26;1752962;81;21082;-65
2021/12/14 17:14:24;;;;;;;27.20;14.73;;;;;;;0.89;100.00;100320.89;1753694;82;21059;-65
2021/12/14 17:16:46;;;;;;;28.70;15.78;;;;;;;0.91;100.00;100325.56;1752675;82;21236;-64
2021/12/14 17:19:17;;;;;;;28.65;14.45;;;;;;;0.88;100.00;100327.80;1753952;82;21526;-64
2021/12/14 17:21:51;;;;;;;30.82;15.63;;;;;;;0.89;100.00;100329.44;1753628;82;21110;-64
2021/12/14 17:24:28;;;;;;;27.48;14.30;;;;;;;0.93;100.00;100336.08;1753564;82;21034;-65
2021/12/14 17:27:04;;;;;;;30.43;15.50;;;;;;;0.94;100.00;100325.67;1753233;82;21114;-65
2021/12/14 17:29:34;;;;;;;23.98;13.88;;;;;;;0.97;100.00;100331.48;1753536;82;21470;-64
2021/12/14 17:32:08;;;;;;;24.80;14.75;;;;;;;0.94;100.00;100335.06;1753130;82;21075;-65
2021/12/14 17:34:39;;;;;;;27.50;13.85;;;;;;;0.86;100.00;100328.49;1750660;82;21022;-64
2021/12/14 17:37:10;;;;;;;26.15;13.48;;;;;;;0.84;100.00;100331.38;1753264;82;21054;-64
2021/12/14 17:39:41;;;;;;;22.40;12.93;;;;;;;0.87;100.00;100322.95;1753427;82;21452;-65
2021/12/14 17:42:11;;;;;;;26.00;14.03;;;;;;;0.89;100.00;100326.25;1753361;82;21063;-64
2021/12/14 17:44:40;;;;;;;27.67;14.23;;;;;;;0.91;100.00;100333.61;1753376;82;20947;-65
2021/12/14 17:47:17;;;;;;;25.60;13.83;;;;;;;0.93;100.00;100339.59;1753330;82;21059;-65
2021/12/14 17:49:52;;;;;;;25.70;14.83;;;;;;;0.88;100.00;100337.19;1753149;82;21481;-64
2021/12/14 17:52:25;;;;;;;26.15;14.13;;;;;;;0.81;100.00;100339.81;1753072;82;21632;-65
2021/12/14 17:54:55;;;;;;;28.60;15.43;;;;;;;0.81;100.00;100346.52;1753327;82;20964;-64
2021/12/14 17:57:33;;;;;;;26.23;14.75;;;;;;;0.85;100.00;100342.41;1753234;82;21102;-63
2021/12/14 18:00:10;;;;;;;26.87;15.45;;;;;;;0.83;100.00;100343.13;1753516;82;20960;-64
2021/12/14 18:02:42;;;;;;;29.07;14.80;;;;;;;0.79;100.00;100339.67;1753265;82;21062;-64
2021/12/14 18:05:31;;;;;;;26.20;13.98;;;;;;;0.81;100.00;100336.31;1753046;82;20972;-64
2021/12/14 18:08:13;;;;;;;27.20;14.03;;;;;;;0.85;100.00;100332.22;1753125;82;21082;-65
2021/12/14 18:10:56;;;;;;;26.77;13.65;;;;;;;0.84;100.00;100332.73;1753376;82;21481;-64
2021/12/14 18:13:30;;;;;;;22.48;13.15;;;;;;;0.81;100.00;100326.92;1753237;81;21553;-64
2021/12/14 18:16:04;;;;;;;22.42;12.50;;;;;;;0.73;100.00;100322.53;1753286;82;20972;-65
2021/12/14 18:21:20;;;;;;;25.90;13.83;;;;;;;0.77;100.00;100317.61;1753514;82;21087;-65
2021/12/14 18:23:47;;;;;;;27.65;15.75;;;;;;;0.80;100.00;100311.35;1753379;82;21046;-65
2021/12/14 18:26:19;;;;;;;28.38;14.95;;;;;;;0.81;100.00;100311.68;1753619;82;21526;-65
2021/12/14 18:28:57;;;;;;;27.55;13.13;;;;;;;0.79;100.00;100311.53;1753151;82;21027;-65
2021/12/14 18:31:24;;;;;;;22.17;13.22;;;;;;;0.75;100.00;100311.09;1753140;82;21097;-65
2021/12/14 18:34:04;;;;;;;23.42;12.20;;;;;;;0.78;100.00;100316.06;1753062;82;21584;-65
2021/12/14 18:36:39;;;;;;;20.50;12.55;;;;;;;0.83;100.00;100318.16;1753319;82;21086;-64
2021/12/14 18:39:16;;;;;;;21.12;11.88;;;;;;;0.87;100.00;100323.45;1751908;82;21046;-65
2021/12/14 18:41:44;;;;;;;19.20;12.30;;;;;;;0.80;100.00;100325.27;1753437;82;21106;-65
2021/12/14 18:44:19;;;;;;;22.48;12.18;;;;;;;0.80;100.00;100325.27;1752979;82;21358;-65
2021/12/14 18:47:07;;;;;;;24.92;12.85;;;;;;;0.79;100.00;100328.45;1752924;82;21089;-65
2021/12/14 18:49:41;;;;;;;23.32;12.50;;;;;;;0.81;100.00;100332.29;1749231;82;21530;-64
2021/12/14 18:52:19;;;;;;;21.35;12.30;;;;;;;0.79;100.00;100334.31;1753536;82;21050;-65
2021/12/14 18:54:59;;;;;;;20.77;12.37;;;;;;;0.76;100.00;100340.90;1752852;82;21031;-65
2021/12/14 18:57:26;;;;;;;22.35;11.60;;;;;;;0.79;100.00;100341.84;1753161;82;21113;-65
2021/12/14 18:59:58;;;;;;;21.60;11.83;;;;;;;0.80;100.00;100350.22;1752919;82;21043;-65
2021/12/14 19:02:33;;;;;;;20.97;12.53;;;;;;;0.80;100.00;100345.36;1753270;82;21597;-64
2021/12/14 19:05:17;;;;;;;21.50;12.15;;;;;;;0.78;100.00;100346.08;1753215;82;21003;-65
2021/12/14 19:07:50;;;;;;;23.98;13.20;;;;;;;0.73;100.00;100341.29;1753075;82;21067;-65
2021/12/14 19:10:25;;;;;;;19.25;11.03;;;;;;;0.78;100.00;100352.23;1753486;82;21034;-65
2021/12/14 19:12:52;;;;;;;18.50;11.33;;;;;;;0.83;100.00;100353.01;1753027;81;21118;-65
2021/12/14 19:15:30;;;;;;;22.58;11.53;;;;;;;0.83;100.00;100350.33;1753590;82;21026;-65
2021/12/14 19:17:59;;;;;;;;;;;;;;;0.77;100.00;100363.17;1755754;82;21031;-65
2021/12/14 19:20:44;;;;;;;18.10;9.90;;;;;;;0.72;100.00;100348.17;1753234;82;20107;-65
2021/12/14 19:23:09;;;;;;;20.62;11.35;;;;;;;0.69;100.00;100342.69;1751335;82;21071;-64
2021/12/14 19:25:37;;;;;;;22.17;10.93;;;;;;;0.72;100.00;100340.12;1752935;82;21037;-64
2021/12/14 19:28:14;;;;;;;22.90;11.05;;;;;;;0.69;100.00;100336.00;1753055;82;21143;-63
2021/12/14 19:30:42;;;;;;;22.10;10.78;;;;;;;0.62;100.00;100337.79;1753141;82;21051;-64
2021/12/14 19:33:09;;;;;;;18.23;11.35;;;;;;;0.62;100.00;100336.45;1753244;82;21133;-64
2021/12/14 19:35:45;;;;;;;17.27;9.98;;;;;;;0.67;100.00;100338.56;1753428;82;20975;-64
2021/12/14 19:38:19;;;;;;;19.80;10.82;;;;;;;0.70;100.00;100337.66;1753125;81;21133;-64
2021/12/14 19:41:00;;;;;;;19.32;10.70;;;;;;;0.76;100.00;100336.05;1753006;82;21058;-64
2021/12/14 19:43:35;;;;;;;16.95;10.13;;;;;;;0.77;100.00;100331.84;1744887;82;21114;-64
2021/12/14 19:46:10;;;;;;;17.00;9.73;;;;;;;0.75;100.00;100332.53;1753345;82;21070;-64
2021/12/14 19:48:47;;;;;;;15.72;9.63;;;;;;;0.79;100.00;100333.81;1752201;82;21038;-64
2021/12/14 19:51:25;;;;;;;19.62;10.38;;;;;;;0.82;100.00;100329.91;1752957;82;21138;-64
2021/12/14 19:53:52;;;;;;;15.45;9.53;;;;;;;0.86;100.00;100324.47;1753290;82;21051;-64
2021/12/14 19:56:22;;;;;;;19.05;9.90;;;;;;;0.82;100.00;100329.91;1702114;82;21039;-64
2021/12/14 19:58:51;;;;;;;17.82;9.90;;;;;;;0.76;100.00;100336.88;1753135;82;21042;-64
2021/12/14 20:01:23;;;;;;;17.48;9.78;;;;;;;0.76;100.00;100338.22;1753265;82;21007;-64
2021/12/14 20:03:53;;;;;;;18.17;9.90;;;;;;;0.79;100.00;100341.02;1753003;82;21545;-64
2021/12/14 20:06:24;;;;;;;16.95;9.55;;;;;;;0.81;100.00;100341.16;1753285;82;21044;-65
2021/12/14 20:08:56;;;;;;;18.10;10.03;;;;;;;0.84;100.00;100335.91;1753211;82;21070;-65
2021/12/14 20:11:31;;;;;;;16.30;9.70;;;;;;;0.80;100.00;100332.80;1752939;81;21126;-64
2021/12/14 20:14:05;;;;;;;19.80;10.28;;;;;;;0.76;100.00;100335.54;1752984;82;21042;-64
2021/12/14 20:16:36;;;;;;;17.48;10.90;;;;;;;0.78;100.00;100337.50;1753226;82;21046;-64
2021/12/14 20:19:04;;;;;;;17.82;10.43;;;;;;;0.79;100.00;100349.89;1726513;82;20995;-64
2021/12/14 20:21:36;;;;;;;20.00;11.35;;;;;;;0.80;100.00;100352.06;1753049;82;21098;-64
2021/12/14 20:24:10;;;;;;;16.77;10.53;;;;;;;0.85;100.00;100345.08;1753146;82;21049;-64
2021/12/14 20:26:42;;;;;;;18.85;12.20;;;;;;;0.86;100.00;100345.91;1753279;81;21422;-64
2021/12/14 20:29:30;;;;;;;18.55;12.05;;;;;;;0.81;100.00;100344.34;1753229;82;21043;-64
2021/12/14 20:32:05;;;;;;;16.75;10.25;;;;;;;0.82;100.00;100341.96;1752871;82;21621;-64
2021/12/14 20:34:40;;;;;;;15.25;9.33;;;;;;;0.90;100.00;100343.17;1753232;81;21050;-64
2021/12/14 20:37:10;;;;;;;16.52;10.28;;;;;;;0.94;100.00;100347.12;1750736;82;21612;-66
2021/12/14 20:39:42;;;;;;;18.85;9.85;;;;;;;0.93;100.00;100342.77;1753228;82;21000;-64
2021/12/14 20:42:17;;;;;;;15.63;9.23;;;;;;;0.92;100.00;100348.64;1753363;82;21058;-65
2021/12/14 20:47:32;;;;;;;15.30;8.25;;;;;;;0.93;100.00;100348.14;1753145;82;21043;-65
2021/12/14 20:49:59;;;;;;;15.78;8.53;;;;;;;0.95;100.00;100344.27;1725696;82;20979;-64
2021/12/14 20:52:29;;;;;;;;;;;;;;;0.94;100.00;100339.91;1755553;82;21082;-65
2021/12/14 20:55:00;;;;;;;13.95;7.55;;;;;;;0.95;100.00;100332.20;1753163;82;20115;-64
2021/12/14 20:57:29;;;;;;;13.55;7.37;;;;;;;0.85;100.00;100332.22;1752950;82;21067;-64
2021/12/14 21:00:06;;;;;;;14.53;8.10;;;;;;;0.84;100.00;100332.73;1752952;82;21589;-65
2021/12/14 21:02:32;;;;;;;13.43;7.97;;;;;;;0.88;100.00;100346.06;1728051;82;21594;-64
2021/12/14 21:05:04;;;;;;;14.05;8.23;;;;;;;0.92;100.00;100347.84;1753186;82;21632;-64
2021/12/14 21:07:30;;;;;;;13.00;7.47;;;;;;;0.95;100.00;100352.81;1753295;82;21039;-65
2021/12/14 21:10:13;;;;;;;13.20;8.55;;;;;;;1.03;100.00;100354.52;1753120;82;21564;-65
2021/12/14 21:12:41;;;;;;;10.00;6.55;;;;;;;1.06;100.00;100353.62;1752928;81;21472;-64
2021/12/14 21:15:24;;;;;;;;;;;;;;;1.00;100.00;100353.87;1755987;82;21506;-64
2021/12/14 21:18:02;;;;;;;13.93;7.92;;;;;;;0.97;100.00;100356.11;1726691;82;20142;-65
2021/12/14 21:20:37;;;;;;;13.62;7.50;;;;;;;0.84;100.00;100353.34;1753470;82;20998;-63
2021/12/14 21:23:05;;;;;;;12.68;7.05;;;;;;;0.86;100.00;100354.79;1753119;82;21122;-63
2021/12/14 21:25:44;;;;;;;11.78;6.78;;;;;;;0.96;100.00;100363.83;1753531;82;20951;-65
2021/12/14 21:28:21;;;;;;;13.48;8.30;;;;;;;1.04;100.00;100362.35;1753206;82;21043;-64
2021/12/14 21:30:53;;;;;;;11.90;7.87;;;;;;;1.11;100.00;100363.73;1753730;82;20940;-64
2021/12/14 21:33:28;;;;;;;14.75;7.90;;;;;;;1.10;100.00;100363.44;1752630;82;21545;-64
2021/12/14 21:36:05;;;;;;;13.43;8.45;;;;;;;1.06;100.00;100361.66;1753334;82;20991;-65
2021/12/14 21:38:47;;;;;;;;;;;;;;;1.05;100.00;100365.87;1755960;82;21062;-65
2021/12/14 21:41:23;;;;;;;19.48;11.00;;;;;;;1.04;100.00;100363.69;1753372;82;20138;-65
2021/12/14 21:44:34;;;;;;;18.12;10.75;;;;;;;1.01;100.00;100358.72;1753115;82;21050;-64
2021/12/14 21:46:49;;;;;;;17.30;10.23;;;;;;;0.96;100.00;100351.25;1749247;82;21079;-65
2021/12/14 21:49:23;;;;;;;15.13;8.63;;;;;;;0.92;100.00;100343.28;1753070;81;21042;-64
2021/12/14 21:52:03;;;;;;;18.12;12.40;;;;;;;0.94;100.00;100345.78;1748156;82;21142;-64
2021/12/14 21:54:35;;;;;;;15.95;10.05;;;;;;;1.01;100.00;100350.68;1753140;82;21549;-64
2021/12/14 21:57:03;;;;;;;14.83;10.48;;;;;;;1.05;100.00;100347.09;1753283;82;21065;-64
2021/12/14 21:59:34;;;;;;;12.65;8.65;;;;;;;1.06;100.00;100349.59;1753105;82;21054;-65
2021/12/14 22:02:01;;;;;;;12.20;8.30;;;;;;;1.05;100.00;100352.46;1753189;82;21145;-64
2021/12/14 22:04:29;;;;;;;12.20;7.72;;;;;;;1.00;100.00;100351.19;1753041;82;21027;-64
2021/12/14 22:06:56;;;;;;;11.60;7.42;;;;;;;1.01;100.00;100352.02;1753094;82;21577;-64
2021/12/14 22:09:22;;;;;;;11.65;7.65;;;;;;;1.08;100.00;100344.02;1753258;82;21593;-63
2021/12/14 22:11:58;;;;;;;11.97;7.37;;;;;;;1.11;100.00;100351.16;1753448;82;21778;-63
2021/12/14 22:14:18;;;;;;;11.75;7.37;;;;;;;1.13;100.00;100351.81;1751695;81;21091;-64
2021/12/14 22:16:55;;;;;;;11.53;6.72;;;;;;;1.16;100.00;100347.91;1753307;82;21097;-64
2021/12/14 22:19:16;;;;;;;10.10;6.75;;;;;;;1.09;100.00;100347.86;1751599;82;21529;-63
2021/12/14 22:21:45;;;;;;;11.33;6.90;;;;;;;1.02;100.00;100341.63;1753308;82;21592;-64